sensor_id;sensor_type;location;lat;lon;timestamp;temperature;humidity
20174;DHT22;10246;50.620;7.232;2022-08-21T08:31:29;20.60;1.00
20174;DHT22;10246;50.620;7.232;2022-08-21T08:33:55;21.90;1.00
20174;DHT22;10246;50.620;7.232;2022-08-21T08:36:32;22.10;1.00
20174;DHT22;10246;50.620;7.232;2022-08-21T08:39:00;22.30;1.00
20174;DHT22;10246;50.620;7.232;2022-08-21T08:41:27;22.50;1.00
20174;DHT22;10246;50.620;7.232;2022-08-21T08:44:00;22.50;1.00
20174;DHT22;10246;50.620;7.232;2022-08-21T08:46:34;22.80;1.00
20174;DHT22;10246;50.620;7.232;2022-08-21T08:49:06;22.90;1.00
20174;DHT22;10246;50.620;7.232;2022-08-21T08:51:40;23.10;1.00
20174;DHT22;10246;50.620;7.232;2022-08-21T08:54:12;23.20;1.00
20174;DHT22;10246;50.620;7.232;2022-08-21T08:56:40;23.50;1.00
20174;DHT22;10246;50.620;7.232;2022-08-21T08:59:12;23.50;1.00
20174;DHT22;10246;50.620;7.232;2022-08-21T09:01:42;23.60;1.00
20174;DHT22;10246;50.620;7.232;2022-08-21T09:04:10;23.90;1.00
20174;DHT22;10246;50.620;7.232;2022-08-21T09:06:52;23.60;1.00
20174;DHT22;10246;50.620;7.232;2022-08-21T09:09:43;23.60;1.00
20174;DHT22;10246;50.620;7.232;2022-08-21T09:12:18;23.80;1.00
20174;DHT22;10246;50.620;7.232;2022-08-21T09:14:54;23.90;1.00
20174;DHT22;10246;50.620;7.232;2022-08-21T09:17:36;24.00;1.00
20174;DHT22;10246;50.620;7.232;2022-08-21T09:20:14;23.80;1.00
20174;DHT22;10246;50.620;7.232;2022-08-21T09:22:50;23.80;1.00
20174;DHT22;10246;50.620;7.232;2022-08-21T09:25:21;23.90;1.00
20174;DHT22;10246;50.620;7.232;2022-08-21T09:27:49;24.10;1.00
20174;DHT22;10246;50.620;7.232;2022-08-21T09:30:17;24.30;1.00
20174;DHT22;10246;50.620;7.232;2022-08-21T09:32:45;24.60;1.00
20174;DHT22;10246;50.620;7.232;2022-08-21T09:35:14;24.80;1.00
20174;DHT22;10246;50.620;7.232;2022-08-21T09:37:48;25.00;1.00
20174;DHT22;10246;50.620;7.232;2022-08-21T09:40:21;25.30;1.00
20174;DHT22;10246;50.620;7.232;2022-08-21T09:42:56;25.40;1.00
20174;DHT22;10246;50.620;7.232;2022-08-21T09:45:23;25.60;1.00
20174;DHT22;10246;50.620;7.232;2022-08-21T09:47:51;25.70;1.00
20174;DHT22;10246;50.620;7.232;2022-08-21T09:50:22;25.60;1.00
20174;DHT22;10246;50.620;7.232;2022-08-21T09:52:51;25.60;1.00
20174;DHT22;10246;50.620;7.232;2022-08-21T09:55:24;25.70;1.00
20174;DHT22;10246;50.620;7.232;2022-08-21T09:58:10;25.80;1.00
20174;DHT22;10246;50.620;7.232;2022-08-21T10:00:37;25.90;1.00
20174;DHT22;10246;50.620;7.232;2022-08-21T10:03:11;26.10;1.00
20174;DHT22;10246;50.620;7.232;2022-08-21T10:05:39;25.90;1.00
20174;DHT22;10246;50.620;7.232;2022-08-21T10:08:16;25.40;1.00
20174;DHT22;10246;50.620;7.232;2022-08-21T10:10:43;25.30;1.00
20174;DHT22;10246;50.620;7.232;2022-08-21T10:13:14;25.50;1.00
20174;DHT22;10246;50.620;7.232;2022-08-21T10:15:51;25.90;1.00
20174;DHT22;10246;50.620;7.232;2022-08-21T10:18:27;25.80;1.00
20174;DHT22;10246;50.620;7.232;2022-08-21T10:21:01;25.70;1.00
20174;DHT22;10246;50.620;7.232;2022-08-21T10:23:39;25.80;1.00
20174;DHT22;10246;50.620;7.232;2022-08-21T10:26:14;25.90;1.00
20174;DHT22;10246;50.620;7.232;2022-08-21T10:28:50;26.10;1.00
20174;DHT22;10246;50.620;7.232;2022-08-21T10:31:25;26.30;1.00
20174;DHT22;10246;50.620;7.232;2022-08-21T10:34:07;26.50;1.00
20174;DHT22;10246;50.620;7.232;2022-08-21T10:36:41;26.70;1.00
20174;DHT22;10246;50.620;7.232;2022-08-21T10:39:17;26.90;1.00
20174;DHT22;10246;50.620;7.232;2022-08-21T10:44:41;27.10;1.00
20174;DHT22;10246;50.620;7.232;2022-08-21T10:47:16;27.30;1.00
20174;DHT22;10246;50.620;7.232;2022-08-21T10:49:50;27.40;1.00
20174;DHT22;10246;50.620;7.232;2022-08-21T10:52:34;27.50;1.00
20174;DHT22;10246;50.620;7.232;2022-08-21T10:55:08;27.30;1.00
20174;DHT22;10246;50.620;7.232;2022-08-21T10:57:41;27.40;1.00
20174;DHT22;10246;50.620;7.232;2022-08-21T11:00:13;27.70;1.00
20174;DHT22;10246;50.620;7.232;2022-08-21T11:02:45;27.80;1.00
20174;DHT22;10246;50.620;7.232;2022-08-21T11:05:21;27.70;1.00
20174;DHT22;10246;50.620;7.232;2022-08-21T11:07:54;27.80;1.00
20174;DHT22;10246;50.620;7.232;2022-08-21T11:10:24;27.70;1.00
20174;DHT22;10246;50.620;7.232;2022-08-21T11:12:54;27.80;1.00
20174;DHT22;10246;50.620;7.232;2022-08-21T11:15:31;28.00;1.00
20174;DHT22;10246;50.620;7.232;2022-08-21T11:18:10;27.70;1.00
20174;DHT22;10246;50.620;7.232;2022-08-21T11:20:45;27.80;1.00
20174;DHT22;10246;50.620;7.232;2022-08-21T11:23:18;27.70;1.00
20174;DHT22;10246;50.620;7.232;2022-08-21T11:25:52;27.20;1.00
20174;DHT22;10246;50.620;7.232;2022-08-21T11:28:23;27.20;1.00
20174;DHT22;10246;50.620;7.232;2022-08-21T11:30:58;27.30;1.00
20174;DHT22;10246;50.620;7.232;2022-08-21T11:33:40;27.50;1.00
20174;DHT22;10246;50.620;7.232;2022-08-21T11:36:17;27.90;1.00
20174;DHT22;10246;50.620;7.232;2022-08-21T11:38:53;27.90;1.00
20174;DHT22;10246;50.620;7.232;2022-08-21T11:41:28;27.80;1.00
20174;DHT22;10246;50.620;7.232;2022-08-21T11:44:02;27.80;1.00
20174;DHT22;10246;50.620;7.232;2022-08-21T11:46:36;27.90;1.00
20174;DHT22;10246;50.620;7.232;2022-08-21T11:49:25;28.20;1.00
20174;DHT22;10246;50.620;7.232;2022-08-21T11:52:02;28.40;1.00
20174;DHT22;10246;50.620;7.232;2022-08-21T11:54:39;28.80;1.00
20174;DHT22;10246;50.620;7.232;2022-08-21T11:57:14;29.00;1.00
20174;DHT22;10246;50.620;7.232;2022-08-21T11:59:46;29.20;1.00
20174;DHT22;10246;50.620;7.232;2022-08-21T12:02:16;29.20;1.00
20174;DHT22;10246;50.620;7.232;2022-08-21T12:04:47;29.20;1.00
20174;DHT22;10246;50.620;7.232;2022-08-21T12:07:30;29.00;1.00
20174;DHT22;10246;50.620;7.232;2022-08-21T12:09:58;29.00;1.00
20174;DHT22;10246;50.620;7.232;2022-08-21T12:12:27;28.60;1.00
20174;DHT22;10246;50.620;7.232;2022-08-21T12:15:15;28.30;1.00
20174;DHT22;10246;50.620;7.232;2022-08-21T12:17:53;28.20;1.00
20174;DHT22;10246;50.620;7.232;2022-08-21T12:23:19;28.10;1.00
20174;DHT22;10246;50.620;7.232;2022-08-21T12:26:09;27.90;1.00
20174;DHT22;10246;50.620;7.232;2022-08-21T12:28:37;28.10;1.00
20174;DHT22;10246;50.620;7.232;2022-08-21T12:31:17;28.60;1.00
20174;DHT22;10246;50.620;7.232;2022-08-21T12:33:51;29.00;1.00
20174;DHT22;10246;50.620;7.232;2022-08-21T12:36:22;29.00;1.00
20174;DHT22;10246;50.620;7.232;2022-08-21T12:38:56;29.00;1.00
20174;DHT22;10246;50.620;7.232;2022-08-21T12:41:27;28.80;1.00
20174;DHT22;10246;50.620;7.232;2022-08-21T12:43:57;28.80;1.00
20174;DHT22;10246;50.620;7.232;2022-08-21T12:46:32;29.30;1.00
20174;DHT22;10246;50.620;7.232;2022-08-21T12:49:06;29.70;1.00
20174;DHT22;10246;50.620;7.232;2022-08-21T12:51:50;29.70;1.00
20174;DHT22;10246;50.620;7.232;2022-08-21T12:54:26;29.70;1.00
20174;DHT22;10246;50.620;7.232;2022-08-21T12:56:57;29.80;1.00
20174;DHT22;10246;50.620;7.232;2022-08-21T12:59:24;29.80;1.00
20174;DHT22;10246;50.620;7.232;2022-08-21T13:01:52;30.00;1.00
20174;DHT22;10246;50.620;7.232;2022-08-21T13:04:23;30.10;1.00
20174;DHT22;10246;50.620;7.232;2022-08-21T13:06:54;29.90;1.00
20174;DHT22;10246;50.620;7.232;2022-08-21T13:09:26;29.90;1.00
20174;DHT22;10246;50.620;7.232;2022-08-21T13:11:54;30.20;1.00
20174;DHT22;10246;50.620;7.232;2022-08-21T13:14:28;29.90;1.00
20174;DHT22;10246;50.620;7.232;2022-08-21T13:16:56;30.00;1.00
20174;DHT22;10246;50.620;7.232;2022-08-21T13:19:24;30.10;1.00
20174;DHT22;10246;50.620;7.232;2022-08-21T13:21:52;30.30;1.00
20174;DHT22;10246;50.620;7.232;2022-08-21T13:24:23;30.50;1.00
20174;DHT22;10246;50.620;7.232;2022-08-21T13:26:52;30.10;1.00
20174;DHT22;10246;50.620;7.232;2022-08-21T13:29:22;29.90;1.00
20174;DHT22;10246;50.620;7.232;2022-08-21T13:31:51;29.90;1.00
20174;DHT22;10246;50.620;7.232;2022-08-21T13:34:21;29.70;1.00
20174;DHT22;10246;50.620;7.232;2022-08-21T13:36:52;29.50;1.00
20174;DHT22;10246;50.620;7.232;2022-08-21T13:39:21;29.40;1.00
20174;DHT22;10246;50.620;7.232;2022-08-21T13:41:53;29.30;1.00
20174;DHT22;10246;50.620;7.232;2022-08-21T13:44:22;29.00;1.00
20174;DHT22;10246;50.620;7.232;2022-08-21T13:46:52;29.20;1.00
20174;DHT22;10246;50.620;7.232;2022-08-21T13:49:32;29.40;1.00
20174;DHT22;10246;50.620;7.232;2022-08-21T13:51:59;29.70;1.00
20174;DHT22;10246;50.620;7.232;2022-08-21T13:54:34;29.90;1.00
20174;DHT22;10246;50.620;7.232;2022-08-21T13:57:04;29.70;1.00
20174;DHT22;10246;50.620;7.232;2022-08-21T13:59:33;29.50;1.00
20174;DHT22;10246;50.620;7.232;2022-08-21T14:02:07;29.50;1.00
20174;DHT22;10246;50.620;7.232;2022-08-21T14:04:36;29.20;1.00
20174;DHT22;10246;50.620;7.232;2022-08-21T14:07:16;29.40;1.00
20174;DHT22;10246;50.620;7.232;2022-08-21T14:09:44;29.30;1.00
20174;DHT22;10246;50.620;7.232;2022-08-21T14:12:15;29.40;1.00
20174;DHT22;10246;50.620;7.232;2022-08-21T14:14:43;29.00;1.00
20174;DHT22;10246;50.620;7.232;2022-08-21T14:17:13;28.70;1.00
20174;DHT22;10246;50.620;7.232;2022-08-21T14:19:42;28.90;1.00
20174;DHT22;10246;50.620;7.232;2022-08-21T14:22:32;29.00;1.00
20174;DHT22;10246;50.620;7.232;2022-08-21T14:25:04;29.00;1.00
20174;DHT22;10246;50.620;7.232;2022-08-21T14:27:34;28.80;1.00
20174;DHT22;10246;50.620;7.232;2022-08-21T14:30:10;29.10;1.00
20174;DHT22;10246;50.620;7.232;2022-08-21T14:32:39;29.00;1.00
20174;DHT22;10246;50.620;7.232;2022-08-21T14:35:06;29.00;1.00
20174;DHT22;10246;50.620;7.232;2022-08-21T14:37:34;29.20;1.00
20174;DHT22;10246;50.620;7.232;2022-08-21T14:40:02;29.40;1.00
20174;DHT22;10246;50.620;7.232;2022-08-21T14:42:29;29.70;1.00
20174;DHT22;10246;50.620;7.232;2022-08-21T14:45:01;29.80;1.00
20174;DHT22;10246;50.620;7.232;2022-08-21T14:47:28;29.60;1.00
20174;DHT22;10246;50.620;7.232;2022-08-21T14:49:55;29.30;1.00
20174;DHT22;10246;50.620;7.232;2022-08-21T14:52:21;29.40;1.00
20174;DHT22;10246;50.620;7.232;2022-08-21T14:54:49;29.40;1.00
20174;DHT22;10246;50.620;7.232;2022-08-21T14:57:15;29.10;1.00
20174;DHT22;10246;50.620;7.232;2022-08-21T14:59:42;29.10;1.00
20174;DHT22;10246;50.620;7.232;2022-08-21T15:02:11;29.20;1.00
20174;DHT22;10246;50.620;7.232;2022-08-21T15:04:37;29.20;1.00
20174;DHT22;10246;50.620;7.232;2022-08-21T15:07:04;29.00;1.00
20174;DHT22;10246;50.620;7.232;2022-08-21T15:09:31;29.10;1.00
20174;DHT22;10246;50.620;7.232;2022-08-21T15:12:01;28.90;1.00
20174;DHT22;10246;50.620;7.232;2022-08-21T15:14:30;28.70;1.00
20174;DHT22;10246;50.620;7.232;2022-08-21T15:16:58;28.70;1.00
20174;DHT22;10246;50.620;7.232;2022-08-21T15:19:26;28.60;1.00
20174;DHT22;10246;50.620;7.232;2022-08-21T15:21:54;28.60;1.00
20174;DHT22;10246;50.620;7.232;2022-08-21T15:24:22;28.20;1.00
20174;DHT22;10246;50.620;7.232;2022-08-21T15:26:49;28.00;1.00
20174;DHT22;10246;50.620;7.232;2022-08-21T15:29:16;27.80;1.00
20174;DHT22;10246;50.620;7.232;2022-08-21T15:31:50;27.70;1.00
20174;DHT22;10246;50.620;7.232;2022-08-21T15:34:18;27.70;1.00
20174;DHT22;10246;50.620;7.232;2022-08-21T15:36:46;27.60;1.00
20174;DHT22;10246;50.620;7.232;2022-08-21T15:39:12;27.40;1.00
20174;DHT22;10246;50.620;7.232;2022-08-21T15:41:39;27.40;1.00
20174;DHT22;10246;50.620;7.232;2022-08-21T15:44:08;27.40;1.00
20174;DHT22;10246;50.620;7.232;2022-08-21T15:46:36;27.50;1.00
20174;DHT22;10246;50.620;7.232;2022-08-21T15:49:03;27.50;1.00
20174;DHT22;10246;50.620;7.232;2022-08-21T15:51:30;27.50;1.00
20174;DHT22;10246;50.620;7.232;2022-08-21T15:53:59;27.50;1.00
20174;DHT22;10246;50.620;7.232;2022-08-21T15:56:28;27.30;1.00
20174;DHT22;10246;50.620;7.232;2022-08-21T15:59:01;27.10;1.00
20174;DHT22;10246;50.620;7.232;2022-08-21T16:01:28;27.00;1.00
20174;DHT22;10246;50.620;7.232;2022-08-21T16:03:55;26.90;1.00
20174;DHT22;10246;50.620;7.232;2022-08-21T16:06:22;27.00;1.00
20174;DHT22;10246;50.620;7.232;2022-08-21T16:08:49;26.90;1.00
20174;DHT22;10246;50.620;7.232;2022-08-21T16:11:17;26.90;1.00
20174;DHT22;10246;50.620;7.232;2022-08-21T16:13:46;26.80;1.00
20174;DHT22;10246;50.620;7.232;2022-08-21T16:16:16;26.70;1.00
20174;DHT22;10246;50.620;7.232;2022-08-21T16:18:44;26.80;1.00
20174;DHT22;10246;50.620;7.232;2022-08-21T16:21:11;26.80;1.00
20174;DHT22;10246;50.620;7.232;2022-08-21T16:23:38;26.80;1.00
20174;DHT22;10246;50.620;7.232;2022-08-21T16:26:07;26.90;1.00
20174;DHT22;10246;50.620;7.232;2022-08-21T16:28:38;26.80;1.00
20174;DHT22;10246;50.620;7.232;2022-08-21T16:31:05;26.70;1.00
20174;DHT22;10246;50.620;7.232;2022-08-21T16:33:34;26.60;1.00
20174;DHT22;10246;50.620;7.232;2022-08-21T16:36:02;26.40;1.00
20174;DHT22;10246;50.620;7.232;2022-08-21T16:38:29;26.30;1.00
20174;DHT22;10246;50.620;7.232;2022-08-21T16:40:57;26.40;1.00
20174;DHT22;10246;50.620;7.232;2022-08-21T16:43:27;26.40;1.00
20174;DHT22;10246;50.620;7.232;2022-08-21T16:45:56;26.40;1.00
20174;DHT22;10246;50.620;7.232;2022-08-21T16:48:24;26.30;1.00
20174;DHT22;10246;50.620;7.232;2022-08-21T16:50:51;26.20;1.00
20174;DHT22;10246;50.620;7.232;2022-08-21T16:53:18;26.20;1.00
20174;DHT22;10246;50.620;7.232;2022-08-21T16:55:44;26.00;1.00
20174;DHT22;10246;50.620;7.232;2022-08-21T16:58:16;25.90;1.00
20174;DHT22;10246;50.620;7.232;2022-08-21T17:00:44;26.00;1.00
20174;DHT22;10246;50.620;7.232;2022-08-21T17:03:15;25.90;1.00
20174;DHT22;10246;50.620;7.232;2022-08-21T17:05:43;25.90;1.00
20174;DHT22;10246;50.620;7.232;2022-08-21T17:08:09;25.90;1.00
20174;DHT22;10246;50.620;7.232;2022-08-21T17:10:36;25.90;1.00
20174;DHT22;10246;50.620;7.232;2022-08-21T17:13:03;25.90;1.00
20174;DHT22;10246;50.620;7.232;2022-08-21T17:15:33;25.90;1.00
20174;DHT22;10246;50.620;7.232;2022-08-21T17:18:01;25.90;1.00
20174;DHT22;10246;50.620;7.232;2022-08-21T17:20:29;25.80;1.00
20174;DHT22;10246;50.620;7.232;2022-08-21T17:22:56;25.90;1.00
20174;DHT22;10246;50.620;7.232;2022-08-21T17:25:24;25.90;1.00
20174;DHT22;10246;50.620;7.232;2022-08-21T17:27:52;25.90;1.00
20174;DHT22;10246;50.620;7.232;2022-08-21T17:30:19;25.90;1.00
20174;DHT22;10246;50.620;7.232;2022-08-21T17:32:48;25.90;1.00
20174;DHT22;10246;50.620;7.232;2022-08-21T17:35:15;25.90;1.00
20174;DHT22;10246;50.620;7.232;2022-08-21T17:37:43;25.90;1.00
20174;DHT22;10246;50.620;7.232;2022-08-21T17:40:12;25.80;1.00
20174;DHT22;10246;50.620;7.232;2022-08-21T17:42:40;25.70;1.00
20174;DHT22;10246;50.620;7.232;2022-08-21T17:45:08;25.70;1.00
20174;DHT22;10246;50.620;7.232;2022-08-21T17:47:35;25.70;1.00
20174;DHT22;10246;50.620;7.232;2022-08-21T17:50:03;25.60;1.00
20174;DHT22;10246;50.620;7.232;2022-08-21T17:52:30;25.50;1.00
20174;DHT22;10246;50.620;7.232;2022-08-21T17:54:58;25.40;1.00
20174;DHT22;10246;50.620;7.232;2022-08-21T17:57:25;25.30;1.00
20174;DHT22;10246;50.620;7.232;2022-08-21T17:59:55;25.30;1.00
20174;DHT22;10246;50.620;7.232;2022-08-21T18:02:22;25.30;1.00
20174;DHT22;10246;50.620;7.232;2022-08-21T18:04:49;25.30;1.00
20174;DHT22;10246;50.620;7.232;2022-08-21T18:07:16;25.30;1.00
20174;DHT22;10246;50.620;7.232;2022-08-21T18:09:43;25.20;1.00
20174;DHT22;10246;50.620;7.232;2022-08-21T18:12:12;25.20;1.00
20174;DHT22;10246;50.620;7.232;2022-08-21T18:14:39;25.10;1.00
20174;DHT22;10246;50.620;7.232;2022-08-21T18:17:08;25.10;1.00
20174;DHT22;10246;50.620;7.232;2022-08-21T18:19:35;25.10;1.00
20174;DHT22;10246;50.620;7.232;2022-08-21T18:22:02;25.20;1.00
20174;DHT22;10246;50.620;7.232;2022-08-21T18:24:32;25.10;1.00
